Time;durP1;ratioP1;P1;durP2;ratioP2;P2;SDS_P1;SDS_P2;PMS_P1;PMS_P2;Temp;Humidity;BMP_temperature;BMP_pressure;BME280_temperature;BME280_humidity;BME280_pressure;Samples;Min_cycle;Max_cycle;Signal;HPM_P1;HPM_P2
2023/03/09 00:01:56;;;;;;;12.23;5.70;;;3.00;99.90;;;;;;7408406;19;19926;-77
2023/03/09 00:04:26;;;;;;;9.43;5.00;;;2.70;99.90;;;;;;7409965;19;20305;-76
2023/03/09 00:06:55;;;;;;;10.15;5.20;;;;;;;;;;7406862;19;19932;-78
2023/03/09 00:09:24;;;;;;;7.82;4.43;;;2.50;99.90;;;;;;7407936;19;19926;-76
2023/03/09 00:11:56;;;;;;;10.18;4.95;;;3.10;99.90;;;;;;7406141;19;20383;-76
2023/03/09 00:14:30;;;;;;;11.32;5.18;;;2.30;99.90;;;;;;7406049;19;20467;-76
2023/03/09 00:17:05;;;;;;;9.45;4.90;;;1.90;99.90;;;;;;7405479;19;19923;-77
2023/03/09 00:19:34;;;;;;;9.32;4.97;;;2.60;99.90;;;;;;7407253;19;20323;-77
2023/03/09 00:22:03;;;;;;;7.95;5.10;;;1.60;99.90;;;;;;7405216;19;20387;-76
2023/03/09 00:24:34;;;;;;;11.90;5.50;;;1.70;99.90;;;;;;7404813;19;19921;-76
2023/03/09 00:27:04;;;;;;;8.57;4.75;;;2.80;99.90;;;;;;7407869;19;19942;-76
2023/03/09 00:29:48;;;;;;;8.25;4.38;;;1.50;99.90;;;;;;7403434;19;19918;-76
2023/03/09 00:32:18;;;;;;;;;;;2.40;99.90;;;;;;7407013;19;19950;-76
2023/03/09 00:34:47;;;;;;;7.70;4.55;;;3.10;99.90;;;;;;7406611;19;19926;-77
2023/03/09 00:37:24;;;;;;;8.73;5.25;;;2.30;99.90;;;;;;7405052;19;19914;-76
2023/03/09 00:39:53;;;;;;;9.98;4.88;;;2.80;99.90;;;;;;7402882;19;19922;-77
2023/03/09 00:42:22;;;;;;;10.88;5.25;;;2.30;99.90;;;;;;7405077;19;20363;-77
2023/03/09 00:44:53;;;;;;;7.30;4.47;;;2.50;99.90;;;;;;7403832;19;19927;-76
2023/03/09 00:47:22;;;;;;;11.85;6.13;;;3.00;99.90;;;;;;7406071;19;20357;-76
2023/03/09 00:49:51;;;;;;;10.82;4.95;;;1.80;99.90;;;;;;7402782;19;19918;-76
2023/03/09 00:52:20;;;;;;;10.00;4.93;;;2.90;99.90;;;;;;7404221;19;20355;-77
2023/03/09 00:54:52;;;;;;;9.88;5.43;;;2.00;99.90;;;;;;7403576;19;19926;-77
2023/03/09 00:57:22;;;;;;;8.05;5.22;;;2.20;99.90;;;;;;7403554;19;19923;-77
2023/03/09 00:59:54;;;;;;;9.52;4.90;;;1.40;99.90;;;;;;7403855;19;19922;-76
2023/03/09 01:02:26;;;;;;;9.88;5.43;;;2.40;99.90;;;;;;7408091;19;19930;-76
2023/03/09 01:04:55;;;;;;;10.52;5.70;;;2.60;99.90;;;;;;7403930;19;20322;-77
2023/03/09 01:07:29;;;;;;;9.93;5.13;;;1.60;99.90;;;;;;7403634;19;19914;-77
2023/03/09 01:09:58;;;;;;;10.55;5.45;;;1.40;99.90;;;;;;7404520;19;19915;-76
2023/03/09 01:12:31;;;;;;;10.90;5.03;;;1.60;99.90;;;;;;7403367;19;20285;-77
2023/03/09 01:15:02;;;;;;;9.60;5.60;;;2.80;99.90;;;;;;7406003;19;19922;-76
2023/03/09 01:17:31;;;;;;;10.75;4.80;;;2.10;99.90;;;;;;7403758;19;19929;-76
2023/03/09 01:20:00;;;;;;;10.10;5.85;;;;;;;;;;7405625;19;19946;-76
2023/03/09 01:22:29;;;;;;;9.23;4.93;;;2.30;99.90;;;;;;7404655;19;19922;-76
2023/03/09 01:24:58;;;;;;;9.75;5.60;;;1.50;99.90;;;;;;7404563;19;20416;-76
2023/03/09 01:27:29;;;;;;;10.40;6.03;;;2.50;99.90;;;;;;7407053;19;19922;-77
2023/03/09 01:29:58;;;;;;;8.93;5.30;;;1.40;99.90;;;;;;7404637;19;20380;-76
2023/03/09 01:32:30;;;;;;;10.00;5.88;;;1.50;99.90;;;;;;7407599;19;20404;-76
2023/03/09 01:34:59;;;;;;;12.88;5.78;;;2.40;99.90;;;;;;7403668;19;19925;-77
2023/03/09 01:37:29;;;;;;;10.57;6.07;;;1.90;99.90;;;;;;7404270;19;20335;-77
2023/03/09 01:39:59;;;;;;;9.80;6.53;;;2.10;99.90;;;;;;7402991;19;19929;-78
2023/03/09 01:42:28;;;;;;;10.25;5.78;;;1.90;99.90;;;;;;7402459;19;19922;-77
2023/03/09 01:45:34;;;;;;;12.07;5.88;;;1.90;99.90;;;;;;7403015;19;19927;-77
2023/03/09 01:48:06;;;;;;;10.38;5.32;;;1.70;99.90;;;;;;7405309;19;19974;-77
2023/03/09 01:50:37;;;;;;;10.52;5.30;;;2.40;99.90;;;;;;7403777;19;19938;-77
2023/03/09 01:53:20;;;;;;;12.63;5.95;;;1.30;99.90;;;;;;7402809;19;19918;-76
2023/03/09 01:55:54;;;;;;;10.57;5.55;;;1.60;99.90;;;;;;7402438;19;19918;-77
2023/03/09 01:58:28;;;;;;;10.65;5.95;;;2.40;99.90;;;;;;7405747;19;19922;-77
2023/03/09 02:00:58;;;;;;;10.80;6.10;;;1.80;99.90;;;;;;7402369;19;19918;-77
2023/03/09 02:03:33;;;;;;;12.20;6.25;;;1.90;99.90;;;;;;7401396;19;19946;-76
2023/03/09 02:06:08;;;;;;;11.82;5.75;;;1.90;99.90;;;;;;7402812;19;20607;-76
2023/03/09 02:08:39;;;;;;;13.48;6.95;;;2.30;99.90;;;;;;7401867;19;20369;-76
2023/03/09 02:11:12;;;;;;;13.07;6.28;;;1.20;99.90;;;;;;7403491;19;20311;-77
2023/03/09 02:13:44;;;;;;;11.80;6.53;;;2.30;99.90;;;;;;7403938;19;19926;-76
2023/03/09 02:16:13;;;;;;;13.77;7.25;;;1.30;99.90;;;;;;7404414;19;19922;-76
2023/03/09 02:18:50;;;;;;;15.10;6.78;;;1.30;99.90;;;;;;7403856;19;19963;-76
2023/03/09 02:21:28;;;;;;;14.27;6.13;;;1.60;99.90;;;;;;7402929;19;20330;-76
2023/03/09 02:24:05;;;;;;;13.23;6.72;;;1.30;99.90;;;;;;7403860;19;19960;-76
2023/03/09 02:26:38;;;;;;;12.57;6.47;;;2.30;99.90;;;;;;7402389;19;19930;-76
2023/03/09 02:29:16;;;;;;;15.00;7.55;;;2.20;99.90;;;;;;7403073;19;19949;-76
2023/03/09 02:31:45;;;;;;;12.00;6.22;;;1.10;99.90;;;;;;7401823;19;19923;-77
2023/03/09 02:34:15;;;;;;;13.95;6.95;;;2.20;99.90;;;;;;7402484;19;20014;-76
2023/03/09 02:36:44;;;;;;;13.38;6.47;;;0.90;99.90;;;;;;7404474;19;19933;-76
2023/03/09 02:39:21;;;;;;;13.57;7.10;;;0.90;99.90;;;;;;7404988;19;19926;-76
2023/03/09 02:41:51;;;;;;;13.77;6.20;;;2.00;99.90;;;;;;7401444;19;19974;-76
2023/03/09 02:44:23;;;;;;;12.35;6.78;;;2.00;99.90;;;;;;7404150;19;19922;-76
2023/03/09 02:46:52;;;;;;;13.38;6.93;;;;;;;;;;7403601;19;19923;-76
2023/03/09 02:49:21;;;;;;;15.52;7.50;;;;;;;;;;7404684;19;19957;-76
2023/03/09 02:51:52;;;;;;;12.38;7.35;;;;;;;;;;7400715;19;20415;-76
2023/03/09 02:54:21;;;;;;;15.38;7.72;;;1.60;99.90;;;;;;7403226;19;19926;-76
2023/03/09 02:56:50;;;;;;;15.32;7.13;;;1.10;99.90;;;;;;7404545;19;19923;-76
2023/03/09 02:59:22;;;;;;;13.35;6.63;;;1.30;99.90;;;;;;7401501;19;19974;-76
2023/03/09 03:01:51;;;;;;;13.80;7.00;;;1.50;99.90;;;;;;7402239;19;19931;-76
2023/03/09 03:04:20;;;;;;;14.10;7.25;;;1.50;99.90;;;;;;7402186;19;19954;-76
2023/03/09 03:06:49;;;;;;;10.77;6.50;;;2.10;99.90;;;;;;7403280;19;19922;-77
2023/03/09 03:09:18;;;;;;;13.75;7.70;;;1.80;99.90;;;;;;7401937;19;19926;-77
2023/03/09 03:11:47;;;;;;;16.23;7.22;;;1.90;99.90;;;;;;7401200;19;19939;-76
2023/03/09 03:14:16;;;;;;;14.30;7.05;;;1.40;99.90;;;;;;7401072;19;19927;-77
2023/03/09 03:16:48;;;;;;;15.57;7.57;;;1.90;99.90;;;;;;7402306;19;19919;-77
2023/03/09 03:19:17;;;;;;;13.70;7.57;;;2.30;99.90;;;;;;7404694;19;19927;-76
2023/03/09 03:21:47;;;;;;;15.00;6.75;;;2.30;99.90;;;;;;7398229;19;19918;-76
2023/03/09 03:24:16;;;;;;;16.08;7.93;;;1.60;99.90;;;;;;7401050;19;19919;-75
2023/03/09 03:26:45;;;;;;;13.90;7.20;;;1.00;99.90;;;;;;7400759;19;19916;-77
2023/03/09 03:29:14;;;;;;;14.20;7.25;;;2.40;99.90;;;;;;7400959;19;19998;-77
2023/03/09 03:31:43;;;;;;;14.50;7.43;;;2.20;99.90;;;;;;7403636;19;19918;-76
2023/03/09 03:34:15;;;;;;;16.67;7.60;;;2.10;99.90;;;;;;7400127;19;20252;-76
2023/03/09 03:36:44;;;;;;;;;;;1.70;99.90;;;;;;7402379;19;19922;-76
2023/03/09 03:39:13;;;;;;;14.90;7.75;;;2.00;99.90;;;;;;7400158;19;19943;-76
2023/03/09 03:41:42;;;;;;;14.38;8.07;;;1.90;99.90;;;;;;7399649;19;19938;-75
2023/03/09 03:44:11;;;;;;;17.48;8.65;;;1.00;99.90;;;;;;7399574;19;19922;-77
2023/03/09 03:46:42;;;;;;;16.17;8.23;;;1.30;99.90;;;;;;7398825;19;19919;-76
2023/03/09 03:49:11;;;;;;;17.02;7.68;;;2.20;99.90;;;;;;7399062;19;20268;-76
2023/03/09 03:51:47;;;;;;;17.27;8.25;;;1.20;99.90;;;;;;7397361;19;19926;-76
2023/03/09 03:54:16;;;;;;;18.25;8.65;;;1.70;99.90;;;;;;7399100;19;19922;-76
2023/03/09 03:56:45;;;;;;;16.27;7.43;;;2.40;99.90;;;;;;7399054;19;19918;-76
2023/03/09 03:59:14;;;;;;;16.42;7.82;;;1.60;99.90;;;;;;7401418;19;20026;-76
2023/03/09 04:01:44;;;;;;;16.20;7.70;;;0.80;99.90;;;;;;7399297;19;19919;-75
2023/03/09 04:04:18;;;;;;;13.13;6.63;;;2.00;99.90;;;;;;7399272;19;19919;-76
2023/03/09 04:06:50;;;;;;;17.38;7.95;;;2.30;99.90;;;;;;7400012;19;19918;-76
2023/03/09 04:09:19;;;;;;;15.32;7.88;;;2.10;99.90;;;;;;7399497;19;19927;-76
2023/03/09 04:11:48;;;;;;;17.20;8.05;;;1.00;99.90;;;;;;7396822;19;20012;-76
2023/03/09 04:14:17;;;;;;;14.38;8.00;;;1.30;99.90;;;;;;7400510;19;19922;-76
2023/03/09 04:16:46;;;;;;;18.90;8.30;;;1.80;99.90;;;;;;7399214;19;19919;-76
2023/03/09 04:19:15;;;;;;;16.42;8.05;;;;;;;;;;7398494;19;20349;-76
2023/03/09 04:21:45;;;;;;;16.98;8.52;;;;;;;;;;7397027;19;20278;-76
2023/03/09 04:24:16;;;;;;;16.48;7.65;;;1.70;99.90;;;;;;7398390;19;19915;-77
2023/03/09 04:26:46;;;;;;;16.10;7.20;;;2.30;99.90;;;;;;7400956;19;19919;-76
2023/03/09 04:29:17;;;;;;;18.10;7.43;;;2.20;99.90;;;;;;7397989;19;20257;-76
2023/03/09 04:31:46;;;;;;;15.93;7.53;;;1.70;99.90;;;;;;7400229;19;19954;-76
2023/03/09 04:34:15;;;;;;;13.45;6.70;;;2.30;99.90;;;;;;7404766;19;19918;-76
2023/03/09 04:36:45;;;;;;;14.32;6.75;;;1.90;99.90;;;;;;7404552;19;20264;-76
2023/03/09 04:39:17;;;;;;;17.05;7.55;;;0.90;99.90;;;;;;7404566;19;19922;-76
2023/03/09 04:41:46;;;;;;;13.90;7.05;;;2.10;99.90;;;;;;7406627;19;19922;-75
2023/03/09 04:44:15;;;;;;;15.95;7.63;;;2.20;99.90;;;;;;7404205;19;19946;-76
2023/03/09 04:46:44;;;;;;;15.30;7.45;;;1.90;99.90;;;;;;7406275;19;20410;-76
2023/03/09 04:49:13;;;;;;;11.68;7.20;;;;;;;;;;7403806;19;19923;-76
2023/03/09 04:51:42;;;;;;;17.17;8.50;;;2.00;99.90;;;;;;7402994;19;19943;-76
2023/03/09 04:54:11;;;;;;;13.95;7.28;;;2.10;99.90;;;;;;7404542;19;19924;-76
2023/03/09 04:56:43;;;;;;;14.00;7.22;;;1.80;99.90;;;;;;7404106;19;20273;-76
2023/03/09 04:59:12;;;;;;;14.55;7.57;;;2.20;99.90;;;;;;7404403;19;20725;-76
2023/03/09 05:01:41;;;;;;;13.10;7.35;;;1.80;99.90;;;;;;7404031;19;19931;-76
2023/03/09 05:04:11;;;;;;;14.95;7.82;;;1.70;99.90;;;;;;7408610;19;20361;-76
2023/03/09 05:06:40;;;;;;;13.18;6.45;;;0.90;99.90;;;;;;7405117;19;20482;-76
2023/03/09 05:09:09;;;;;;;15.32;6.80;;;0.70;99.90;;;;;;7403690;19;19932;-77
2023/03/09 05:11:41;;;;;;;13.77;7.15;;;1.80;99.90;;;;;;7402143;19;20440;-76
2023/03/09 05:14:10;;;;;;;15.10;7.85;;;2.20;99.90;;;;;;7403089;19;19915;-76
2023/03/09 05:16:39;;;;;;;14.90;7.50;;;2.10;99.90;;;;;;7405994;19;19986;-76
2023/03/09 05:19:08;;;;;;;15.75;7.53;;;0.70;99.90;;;;;;7406487;19;20562;-76
2023/03/09 05:21:37;;;;;;;15.45;7.30;;;1.50;99.90;;;;;;7403386;19;19927;-76
2023/03/09 05:24:08;;;;;;;15.27;8.10;;;1.70;99.90;;;;;;7406586;19;19921;-75
2023/03/09 05:26:37;;;;;;;15.30;7.28;;;0.90;99.90;;;;;;7403408;19;19922;-76
2023/03/09 05:29:08;;;;;;;14.88;7.65;;;2.00;99.90;;;;;;7406896;19;19946;-76
2023/03/09 05:31:38;;;;;;;16.02;7.57;;;1.70;99.90;;;;;;7402487;19;19934;-75
2023/03/09 05:34:06;;;;;;;16.05;7.90;;;0.60;99.90;;;;;;7403225;19;20271;-76
2023/03/09 05:36:35;;;;;;;13.38;6.75;;;2.00;99.90;;;;;;7402612;19;19982;-76
2023/03/09 05:39:25;;;;;;;14.18;7.60;;;1.10;99.90;;;;;;7401594;19;19933;-76
2023/03/09 05:42:14;;;;;;;14.68;8.10;;;0.40;99.90;;;;;;7401225;19;19945;-75
2023/03/09 05:45:06;;;;;;;14.82;8.30;;;1.40;99.90;;;;;;7400821;19;19914;-76
2023/03/09 05:47:35;;;;;;;;;;;1.30;99.90;;;;;;7407708;19;20264;-76
2023/03/09 05:50:08;;;;;;;15.43;8.18;;;0.60;99.90;;;;;;7402848;19;19923;-76
2023/03/09 05:52:41;;;;;;;16.17;8.68;;;1.10;99.90;;;;;;7401140;19;19942;-77
2023/03/09 05:55:11;;;;;;;13.43;8.07;;;1.20;99.90;;;;;;7402128;19;19926;-77
2023/03/09 05:57:41;;;;;;;13.10;7.72;;;1.20;99.90;;;;;;7402763;19;19942;-76
2023/03/09 06:00:14;;;;;;;16.02;7.35;;;1.30;99.90;;;;;;7402531;19;20245;-77
2023/03/09 06:02:43;;;;;;;16.38;8.50;;;1.40;99.90;;;;;;7405947;19;19926;-76
2023/03/09 06:05:12;;;;;;;15.98;8.55;;;0.90;99.90;;;;;;7402630;19;19943;-76
2023/03/09 06:07:42;;;;;;;15.77;8.80;;;0.50;99.90;;;;;;7402686;19;19926;-76
2023/03/09 06:10:13;;;;;;;13.07;8.02;;;0.50;99.90;;;;;;7402506;19;20281;-76
2023/03/09 06:12:42;;;;;;;17.70;8.70;;;1.90;99.90;;;;;;7400686;19;19922;-76
2023/03/09 06:15:13;;;;;;;15.77;7.88;;;1.00;99.90;;;;;;7404644;19;19922;-76
2023/03/09 06:17:42;;;;;;;14.93;7.70;;;1.10;99.90;;;;;;7403384;19;20013;-76
2023/03/09 06:20:12;;;;;;;14.43;7.68;;;0.70;99.90;;;;;;7402173;19;19925;-80
2023/03/09 06:22:44;;;;;;;14.32;8.43;;;;;;;;;;7399725;19;20344;-81
2023/03/09 06:25:13;;;;;;;14.75;7.50;;;1.80;99.90;;;;;;7401703;19;19919;-78
2023/03/09 06:27:42;;;;;;;13.30;7.68;;;1.40;99.90;;;;;;7401865;19;19947;-77
2023/03/09 06:30:17;;;;;;;15.38;7.88;;;1.40;99.90;;;;;;7402370;19;19926;-79
2023/03/09 06:32:46;;;;;;;;;;;1.40;99.90;;;;;;7405456;19;19926;-76
2023/03/09 06:35:16;;;;;;;13.63;6.57;;;1.70;99.90;;;;;;7401391;19;19922;-76
2023/03/09 06:37:45;;;;;;;14.70;7.55;;;1.30;99.90;;;;;;7401201;19;20006;-75
2023/03/09 06:40:16;;;;;;;15.68;7.55;;;0.50;99.90;;;;;;7403088;19;20277;-76
2023/03/09 06:42:45;;;;;;;13.45;7.50;;;;;;;;;;7400925;19;19955;-76
2023/03/09 06:45:16;;;;;;;12.85;7.55;;;0.80;99.90;;;;;;7399982;19;19923;-75
2023/03/09 06:47:45;;;;;;;13.25;7.43;;;0.60;99.90;;;;;;7403956;19;20002;-76
2023/03/09 06:50:15;;;;;;;16.42;7.80;;;0.80;99.90;;;;;;7402225;19;19910;-76
2023/03/09 06:52:44;;;;;;;16.17;7.88;;;;;;;;;;7400766;19;19927;-75
2023/03/09 06:55:13;;;;;;;10.82;6.22;;;0.80;99.90;;;;;;7402599;19;19930;-76
2023/03/09 06:57:42;;;;;;;14.48;6.95;;;0.90;99.90;;;;;;7404506;19;19918;-76
2023/03/09 07:00:18;;;;;;;12.88;7.15;;;0.80;99.90;;;;;;7400906;19;19956;-75
2023/03/09 07:02:47;;;;;;;12.00;7.32;;;1.10;99.90;;;;;;7400859;19;19923;-76
2023/03/09 07:05:16;;;;;;;13.27;8.05;;;0.80;99.90;;;;;;7401345;19;19943;-76
2023/03/09 07:07:45;;;;;;;13.73;6.97;;;0.80;99.90;;;;;;7402306;19;19923;-77
2023/03/09 07:10:15;;;;;;;14.18;7.80;;;2.30;99.90;;;;;;7401260;19;19947;-73
2023/03/09 07:12:44;;;;;;;14.98;7.40;;;1.60;99.90;;;;;;7398956;19;19943;-74
2023/03/09 07:15:14;;;;;;;13.88;7.00;;;;;;;;;;7402606;19;19946;-73
2023/03/09 07:17:45;;;;;;;13.20;7.18;;;0.80;99.90;;;;;;7400347;19;19910;-73
2023/03/09 07:20:15;;;;;;;15.85;7.57;;;2.10;99.90;;;;;;7402581;19;19922;-74
2023/03/09 07:22:44;;;;;;;12.85;6.95;;;1.30;99.90;;;;;;7398827;19;19952;-76
2023/03/09 07:25:13;;;;;;;14.52;7.15;;;1.00;99.90;;;;;;7402215;19;20359;-75
2023/03/09 07:27:42;;;;;;;11.18;6.97;;;2.00;99.90;;;;;;7402049;19;20387;-75
2023/03/09 07:30:13;;;;;;;12.52;7.35;;;1.50;99.90;;;;;;7401989;19;19917;-75
2023/03/09 07:32:45;;;;;;;13.90;7.32;;;2.50;99.90;;;;;;7401854;19;20265;-75
2023/03/09 07:35:14;;;;;;;13.18;7.07;;;2.30;99.90;;;;;;7399939;19;20551;-75
2023/03/09 07:37:43;;;;;;;13.40;7.50;;;2.50;99.90;;;;;;7399295;19;19914;-75
2023/03/09 07:40:13;;;;;;;13.40;7.28;;;2.60;99.90;;;;;;7399676;19;19919;-75
2023/03/09 07:42:49;;;;;;;13.15;7.20;;;2.60;99.90;;;;;;7398569;19;19922;-75
2023/03/09 07:45:19;;;;;;;13.27;7.15;;;2.50;99.90;;;;;;7400047;19;19992;-75
2023/03/09 07:47:51;;;;;;;13.85;7.63;;;2.10;99.90;;;;;;7402808;19;19923;-75
2023/03/09 07:50:21;;;;;;;14.63;7.20;;;1.60;99.90;;;;;;7400300;19;19919;-76
2023/03/09 07:52:50;;;;;;;11.50;6.57;;;1.60;99.90;;;;;;7397253;19;19922;-76
2023/03/09 07:55:22;;;;;;;15.18;7.20;;;2.70;99.90;;;;;;7399427;19;19915;-75
2023/03/09 07:57:51;;;;;;;10.93;6.88;;;1.60;99.90;;;;;;7399047;19;20280;-75
2023/03/09 08:00:23;;;;;;;13.57;7.88;;;1.30;99.90;;;;;;7398632;19;19911;-75
2023/03/09 08:02:54;;;;;;;14.57;7.28;;;2.70;99.90;;;;;;7399616;19;19911;-76
2023/03/09 08:05:23;;;;;;;10.98;6.57;;;1.40;99.90;;;;;;7400577;19;19926;-75
2023/03/09 08:07:53;;;;;;;12.50;6.95;;;2.40;99.90;;;;;;7408629;19;19923;-75
2023/03/09 08:10:23;;;;;;;13.32;6.60;;;1.60;99.90;;;;;;7406232;19;19923;-75
2023/03/09 08:12:52;;;;;;;14.98;8.15;;;1.30;99.90;;;;;;7403779;19;19926;-76
2023/03/09 08:15:24;;;;;;;11.93;7.00;;;2.80;99.90;;;;;;7400376;19;19926;-75
2023/03/09 08:17:56;;;;;;;11.15;6.30;;;2.20;99.90;;;;;;7404872;19;19918;-75
2023/03/09 08:20:25;;;;;;;12.70;7.63;;;3.10;99.90;;;;;;7404912;19;19914;-75
2023/03/09 08:22:55;;;;;;;15.23;7.60;;;2.70;99.90;;;;;;7402210;19;19918;-76
2023/03/09 08:25:24;;;;;;;12.55;7.22;;;2.50;99.90;;;;;;7402003;19;19918;-75
2023/03/09 08:27:53;;;;;;;12.80;6.63;;;2.80;99.90;;;;;;7405570;19;20313;-75
2023/03/09 08:30:22;;;;;;;11.45;6.78;;;3.10;99.90;;;;;;7404557;19;19921;-76
2023/03/09 08:32:52;;;;;;;11.35;6.55;;;3.40;99.90;;;;;;7404103;19;19935;-75
2023/03/09 08:35:25;;;;;;;12.10;6.85;;;3.30;99.90;;;;;;7404984;19;19939;-75
2023/03/09 08:37:57;;;;;;;11.82;6.72;;;2.80;99.90;;;;;;7404606;19;19926;-75
2023/03/09 08:40:26;;;;;;;12.18;6.13;;;3.10;99.90;;;;;;7404273;19;19922;-75
2023/03/09 08:42:57;;;;;;;12.77;5.55;;;2.70;99.90;;;;;;7403941;19;20269;-75
2023/03/09 08:45:27;;;;;;;12.85;6.72;;;2.60;99.90;;;;;;7404456;19;19974;-75
2023/03/09 08:47:56;;;;;;;12.20;5.82;;;2.40;99.90;;;;;;7404615;19;19942;-75
2023/03/09 08:50:29;;;;;;;10.23;5.75;;;2.20;99.90;;;;;;7405573;19;19933;-75
2023/03/09 08:52:58;;;;;;;12.00;6.15;;;1.90;99.90;;;;;;7402710;19;19925;-75
2023/03/09 08:55:27;;;;;;;8.15;5.55;;;2.50;99.90;;;;;;7404545;19;19926;-75
2023/03/09 08:57:58;;;;;;;9.35;5.93;;;2.20;99.90;;;;;;7404301;19;19946;-75
2023/03/09 09:00:27;;;;;;;10.27;5.70;;;3.60;99.90;;;;;;7404072;19;19943;-75
2023/03/09 09:02:59;;;;;;;8.85;5.32;;;3.00;99.90;;;;;;7404732;19;19918;-75
2023/03/09 09:05:30;;;;;;;10.73;5.80;;;2.30;99.90;;;;;;7404258;19;19925;-75
2023/03/09 09:07:59;;;;;;;8.93;5.68;;;3.50;99.90;;;;;;7403927;19;19942;-75
2023/03/09 09:10:29;;;;;;;10.88;6.22;;;2.30;99.90;;;;;;7403496;19;19915;-75
2023/03/09 09:12:58;;;;;;;9.27;4.90;;;3.30;99.90;;;;;;7403942;19;19926;-76
2023/03/09 09:15:27;;;;;;;9.20;5.35;;;2.10;99.90;;;;;;7403395;19;19914;-75
2023/03/09 09:17:56;;;;;;;9.23;5.45;;;3.50;99.90;;;;;;7404240;19;19922;-75
2023/03/09 09:20:26;;;;;;;8.27;4.60;;;;;;;;;;7403346;19;19918;-74
2023/03/09 09:23:03;;;;;;;8.32;4.60;;;2.80;99.90;;;;;;7401787;19;20321;-75
2023/03/09 09:25:32;;;;;;;9.65;4.68;;;2.60;99.90;;;;;;7403514;19;19942;-75
2023/03/09 09:28:01;;;;;;;7.85;4.72;;;2.40;99.90;;;;;;7403354;19;19942;-75
2023/03/09 09:30:32;;;;;;;11.75;5.20;;;3.50;99.90;;;;;;7403123;19;19921;-75
2023/03/09 09:33:01;;;;;;;8.77;4.38;;;3.50;99.90;;;;;;7404525;19;19939;-75
2023/03/09 09:35:30;;;;;;;6.53;4.00;;;3.00;99.90;;;;;;7403014;19;20003;-75
2023/03/09 09:38:02;;;;;;;8.50;4.63;;;3.00;99.90;;;;;;7402748;19;20294;-75
2023/03/09 09:40:31;;;;;;;7.10;4.63;;;3.30;99.90;;;;;;7402912;19;19942;-75
2023/03/09 09:43:01;;;;;;;6.68;4.07;;;2.60;99.90;;;;;;7404938;19;19919;-75
2023/03/09 09:45:34;;;;;;;7.32;4.18;;;4.00;99.90;;;;;;7405499;19;19937;-75
2023/03/09 09:48:18;;;;;;;7.68;4.68;;;3.70;99.90;;;;;;7402811;19;19915;-75
2023/03/09 09:51:09;;;;;;;8.77;5.22;;;4.10;99.90;;;;;;7402384;19;19931;-75
2023/03/09 09:53:50;;;;;;;8.27;5.07;;;4.10;99.90;;;;;;7401114;19;19919;-75
2023/03/09 09:56:23;;;;;;;8.32;4.50;;;3.50;99.90;;;;;;7402233;19;19922;-75
2023/03/09 09:58:56;;;;;;;6.30;4.43;;;3.50;99.90;;;;;;7401355;19;19932;-75
2023/03/09 10:01:33;;;;;;;8.45;4.80;;;3.10;99.90;;;;;;7402366;19;19917;-75
2023/03/09 10:04:10;;;;;;;7.03;4.38;;;4.00;99.90;;;;;;7401949;19;20355;-75
2023/03/09 10:06:43;;;;;;;6.38;4.05;;;2.80;99.90;;;;;;7402976;19;19930;-76
2023/03/09 10:09:23;;;;;;;7.68;4.68;;;3.10;99.90;;;;;;7402289;19;19918;-75
2023/03/09 10:11:56;;;;;;;6.78;4.28;;;2.70;99.90;;;;;;7401800;19;20578;-75
2023/03/09 10:14:30;;;;;;;9.57;5.38;;;2.90;99.90;;;;;;7399493;19;19925;-76
2023/03/09 10:17:05;;;;;;;7.45;4.95;;;2.80;99.90;;;;;;7401347;19;19922;-75
2023/03/09 10:19:38;;;;;;;9.30;5.18;;;3.70;99.90;;;;;;7401901;19;19918;-76
2023/03/09 10:22:12;;;;;;;7.93;5.15;;;3.20;99.90;;;;;;7401119;19;19938;-75
2023/03/09 10:24:45;;;;;;;8.85;5.65;;;3.90;99.90;;;;;;7401609;19;19943;-76
2023/03/09 10:27:22;;;;;;;8.35;5.15;;;4.00;99.90;;;;;;7403678;19;19922;-75
2023/03/09 10:29:57;;;;;;;8.82;4.53;;;4.10;99.90;;;;;;7400314;19;19982;-76
2023/03/09 10:32:36;;;;;;;8.88;4.65;;;3.20;99.90;;;;;;7401738;19;19926;-76
2023/03/09 10:35:19;;;;;;;8.27;5.00;;;3.00;99.90;;;;;;7405004;19;19961;-76
2023/03/09 10:37:51;;;;;;;7.68;5.05;;;4.80;99.90;;;;;;7401684;19;19923;-76
2023/03/09 10:40:26;;;;;;;13.15;4.38;;;4.20;99.90;;;;;;7403905;19;19932;-75
2023/03/09 10:43:00;;;;;;;7.85;5.03;;;5.30;99.90;;;;;;7400544;19;19911;-75
2023/03/09 10:45:31;;;;;;;8.88;4.43;;;4.20;99.90;;;;;;7400123;19;19929;-75
2023/03/09 10:48:04;;;;;;;7.15;4.47;;;4.00;99.90;;;;;;7401219;19;19914;-75
2023/03/09 10:50:35;;;;;;;8.48;5.15;;;3.90;99.90;;;;;;7401017;19;20345;-76
2023/03/09 10:53:25;;;;;;;9.60;5.05;;;3.70;99.90;;;;;;7401304;19;20589;-74
2023/03/09 10:56:05;;;;;;;8.43;5.05;;;4.80;99.90;;;;;;7399721;19;19927;-74
2023/03/09 10:58:44;;;;;;;7.60;5.13;;;4.10;99.90;;;;;;7403938;19;19939;-75
2023/03/09 11:01:25;;;;;;;9.73;5.28;;;4.40;99.90;;;;;;7401769;19;19919;-74
2023/03/09 11:04:01;;;;;;;8.57;5.50;;;3.20;99.90;;;;;;7400792;19;20270;-74
2023/03/09 11:06:37;;;;;;;8.20;4.88;;;3.00;99.90;;;;;;7401010;19;19919;-74
2023/03/09 11:09:16;;;;;;;7.80;5.13;;;4.60;99.90;;;;;;7401037;19;20373;-73
2023/03/09 11:11:49;;;;;;;8.25;5.38;;;4.40;99.90;;;;;;7401737;19;20535;-74
2023/03/09 11:14:26;;;;;;;10.23;5.70;;;3.40;99.90;;;;;;7400071;19;19922;-73
2023/03/09 11:16:56;;;;;;;8.88;5.35;;;2.80;99.90;;;;;;7400303;19;19915;-74
2023/03/09 11:19:25;;;;;;;8.13;5.38;;;2.80;99.90;;;;;;7400334;19;20364;-74
2023/03/09 11:22:03;;;;;;;8.98;5.75;;;4.50;99.90;;;;;;7400098;19;19939;-74
2023/03/09 11:24:38;;;;;;;8.13;5.53;;;4.00;99.90;;;;;;7400143;19;19914;-74
2023/03/09 11:27:16;;;;;;;8.35;5.10;;;2.90;99.90;;;;;;7398171;19;19937;-74
2023/03/09 11:29:53;;;;;;;7.85;4.88;;;3.80;99.90;;;;;;7402151;19;19927;-74
2023/03/09 11:32:23;;;;;;;8.57;5.65;;;4.50;99.90;;;;;;7400373;19;19922;-75
2023/03/09 11:34:53;;;;;;;7.55;5.20;;;4.60;99.90;;;;;;7386868;19;20329;-76
2023/03/09 11:37:28;;;;;;;7.50;4.63;;;4.40;99.90;;;;;;7393385;19;20265;-76
2023/03/09 11:40:19;;;;;;;9.43;5.97;;;3.20;99.90;;;;;;7397857;19;19922;-75
2023/03/09 11:43:17;;;;;;;9.60;5.43;;;3.80;99.90;;;;;;7399048;19;19922;-76
2023/03/09 11:46:14;;;;;;;9.65;5.15;;;4.40;99.90;;;;;;7403708;19;20443;-75
2023/03/09 11:49:09;;;;;;;9.75;5.65;;;4.20;99.90;;;;;;7403801;19;20432;-74
2023/03/09 11:52:00;;;;;;;9.23;6.05;;;4.90;99.90;;;;;;7403773;19;19923;-77
2023/03/09 11:54:51;;;;;;;12.50;5.57;;;3.20;99.90;;;;;;7400487;19;19965;-78
2023/03/09 11:57:41;;;;;;;10.38;6.50;;;3.70;99.90;;;;;;7402397;19;20351;-73
2023/03/09 12:00:35;;;;;;;9.57;6.07;;;3.60;99.90;;;;;;7400557;19;20007;-74
2023/03/09 12:03:25;;;;;;;8.73;5.53;;;4.60;99.90;;;;;;7402937;19;19918;-74
2023/03/09 12:06:29;;;;;;;9.80;6.05;;;4.90;99.90;;;;;;7404995;19;20300;-74
2023/03/09 12:08:59;;;;;;;;;;;4.10;99.90;;;;;;7407425;19;20013;-73
2023/03/09 12:11:34;;;;;;;10.52;6.72;;;4.20;99.90;;;;;;7404426;19;19923;-72
2023/03/09 12:14:08;;;;;;;10.48;6.13;;;4.60;99.90;;;;;;7403216;19;19928;-73
2023/03/09 12:16:41;;;;;;;10.70;6.50;;;4.30;99.90;;;;;;7404948;19;19922;-74
2023/03/09 12:19:17;;;;;;;9.70;6.57;;;3.70;99.90;;;;;;7405993;19;19925;-73
2023/03/09 12:21:50;;;;;;;9.77;6.60;;;4.20;99.90;;;;;;7401097;19;19934;-75
2023/03/09 12:24:31;;;;;;;11.85;7.45;;;3.70;99.90;;;;;;7406383;19;19933;-81
2023/03/09 12:27:03;;;;;;;11.52;7.75;;;4.60;99.90;;;;;;7406396;19;19926;-75
2023/03/09 12:29:39;;;;;;;10.80;6.60;;;5.00;99.90;;;;;;7406536;19;19986;-74
2023/03/09 12:32:40;;;;;;;12.18;6.75;;;4.10;99.90;;;;;;7406035;19;20347;-74
2023/03/09 12:35:50;;;;;;;10.55;6.60;;;4.60;99.90;;;;;;7403739;19;19956;-73
2023/03/09 12:38:26;;;;;;;9.18;5.65;;;3.30;99.90;;;;;;7404781;19;19985;-73
2023/03/09 12:40:55;;;;;;;9.05;6.38;;;3.20;99.90;;;;;;7405978;19;19986;-74
2023/03/09 12:43:49;;;;;;;10.48;6.32;;;4.20;99.90;;;;;;7404308;19;19983;-74
2023/03/09 12:46:52;;;;;;;11.65;6.15;;;4.80;99.90;;;;;;7408700;19;19962;-74
2023/03/09 12:49:28;;;;;;;10.48;6.80;;;5.30;99.90;;;;;;7406570;19;19915;-75
2023/03/09 12:52:24;;;;;;;11.27;6.50;;;4.40;99.90;;;;;;7402947;19;20281;-74
2023/03/09 12:55:03;;;;;;;11.82;7.15;;;4.30;99.90;;;;;;7402149;19;19982;-74
2023/03/09 12:57:33;;;;;;;10.93;7.05;;;4.40;99.90;;;;;;7404189;19;19915;-74
2023/03/09 13:00:30;;;;;;;13.98;7.10;;;4.70;99.90;;;;;;7405379;19;20181;-74
2023/03/09 13:03:03;;;;;;;9.70;6.30;;;4.20;99.90;;;;;;7402263;19;19926;-75
2023/03/09 13:05:35;;;;;;;8.77;6.40;;;4.90;99.90;;;;;;7404586;19;19922;-74
2023/03/09 13:08:08;;;;;;;11.18;6.78;;;5.30;99.90;;;;;;7405495;19;19925;-74
2023/03/09 13:10:40;;;;;;;13.20;7.13;;;4.40;99.90;;;;;;7403776;19;19919;-74
2023/03/09 13:13:35;;;;;;;12.20;7.45;;;4.40;99.90;;;;;;7403256;19;20361;-74
2023/03/09 13:16:49;;;;;;;9.88;6.22;;;4.00;99.90;;;;;;7406465;19;19930;-74
2023/03/09 13:19:54;;;;;;;11.30;7.53;;;4.30;99.90;;;;;;7405248;19;19919;-74
2023/03/09 13:22:37;;;;;;;12.40;7.57;;;4.60;99.90;;;;;;7402825;19;19919;-74
2023/03/09 13:25:34;;;;;;;10.93;7.03;;;5.20;99.90;;;;;;7403468;19;19923;-75
2023/03/09 13:28:14;;;;;;;12.45;7.35;;;3.60;99.90;;;;;;7405359;19;19926;-74